Time;durP1;ratioP1;P1;durP2;ratioP2;P2;SDS_P1;SDS_P2;PMS_P1;PMS_P2;Temp;Humidity;BMP_temperature;BMP_pressure;BME280_temperature;BME280_humidity;BME280_pressure;Samples;Min_cycle;Max_cycle;Signal;HPM_P1;HPM_P2
2022/03/11 00:02:18;;;;;;;1.70;0.70;;;;;;;;;;4950815;29;20051;-70
2022/03/11 00:04:45;;;;;;;0.50;0.50;;;;;;;;;;4965074;28;20038;-70
2022/03/11 00:07:11;;;;;;;2.88;1.55;;;;;;;;;;4970171;28;20034;-71
2022/03/11 00:09:38;;;;;;;2.27;1.53;;;;;;;;;;4960513;28;20606;-70
2022/03/11 00:12:04;;;;;;;0.82;0.82;;;;;;;;;;4964804;28;20350;-71
2022/03/11 00:14:30;;;;;;;1.27;0.80;;;;;;;;;;4971481;28;20130;-71
2022/03/11 00:16:56;;;;;;;2.42;1.08;;;;;;;;;;4968051;28;20122;-71
2022/03/11 00:19:22;;;;;;;0.95;0.60;;;;;;;;;;4962475;28;20141;-71
2022/03/11 00:21:48;;;;;;;0.75;0.65;;;;;;;;;;4964638;28;20094;-70
2022/03/11 00:24:14;;;;;;;2.45;1.00;;;;;;;;;;4968523;28;20051;-71
2022/03/11 00:26:40;;;;;;;1.50;0.88;;;10.10;90.70;;;;;;4968941;28;20023;-70
2022/03/11 00:29:06;;;;;;;0.90;0.90;;;;;;;;;;4964973;28;20031;-71
2022/03/11 00:31:32;;;;;;;1.48;1.10;;;;;;;;;;4962126;28;20827;-70
2022/03/11 00:33:59;;;;;;;4.00;1.35;;;;;;;;;;4966834;28;20038;-70
2022/03/11 00:36:25;;;;;;;1.77;1.17;;;;;;;;;;4966192;28;20062;-71
2022/03/11 00:38:51;;;;;;;1.30;1.00;;;;;;;;;;4967199;28;20038;-71
2022/03/11 00:41:17;;;;;;;1.73;1.63;;;10.00;90.70;;;;;;4960306;28;20027;-71
2022/03/11 00:43:43;;;;;;;1.02;0.93;;;;;;;;;;4967334;28;20034;-71
2022/03/11 00:46:09;;;;;;;1.52;1.35;;;9.70;95.20;;;;;;4967800;28;20035;-72
2022/03/11 00:48:35;;;;;;;1.77;1.45;;;;;;;;;;4968623;28;20042;-70
2022/03/11 00:51:01;;;;;;;1.30;1.20;;;;;;;;;;4957646;28;20393;-71
2022/03/11 00:53:27;;;;;;;1.00;0.90;;;;;;;;;;4970250;28;20026;-71
2022/03/11 00:55:54;;;;;;;0.70;0.70;;;;;;;;;;4967043;28;20067;-71
2022/03/11 00:58:20;;;;;;;1.83;1.10;;;;;;;;;;4951374;28;20120;-70
2022/03/11 01:00:46;;;;;;;0.70;0.70;;;;;;;;;;4957552;28;20523;-71
2022/03/11 01:03:12;;;;;;;0.82;0.80;;;;;;;;;;4967772;28;20035;-70
2022/03/11 01:05:38;;;;;;;1.77;1.27;;;;;;;;;;4952324;28;20077;-70
2022/03/11 01:08:04;;;;;;;1.38;0.85;;;;;;;;;;4966246;28;20055;-70
2022/03/11 01:10:30;;;;;;;3.42;2.22;;;;;;;;;;4953811;28;20043;-70
2022/03/11 01:12:56;;;;;;;1.25;0.90;;;;;;;;;;4967244;28;20030;-70
2022/03/11 01:15:22;;;;;;;0.95;0.95;;;;;;;;;;4966413;28;20449;-70
2022/03/11 01:17:48;;;;;;;1.15;1.05;;;;;;;;;;4967910;28;20080;-70
2022/03/11 01:20:14;;;;;;;0.60;0.60;;;;;;;;;;4956403;28;20043;-71
2022/03/11 01:22:40;;;;;;;1.08;0.60;;;;;;;;;;4965975;28;20034;-71
2022/03/11 01:25:07;;;;;;;0.93;0.90;;;9.00;89.90;;;;;;4965902;28;20029;-71
2022/03/11 01:27:33;;;;;;;0.93;0.80;;;;;;;;;;4950380;28;20039;-71
2022/03/11 01:29:59;;;;;;;0.70;0.70;;;;;;;;;;4948205;28;20031;-71
2022/03/11 01:32:26;;;;;;;1.80;1.00;;;;;;;;;;4967589;28;20400;-71
2022/03/11 01:34:51;;;;;;;1.42;1.00;;;;;;;;;;4967920;28;20819;-71
2022/03/11 01:37:17;;;;;;;1.83;1.00;;;;;;;;;;4967728;28;20034;-70
2022/03/11 01:39:43;;;;;;;2.15;1.00;;;;;;;;;;4957773;28;20043;-71
2022/03/11 01:42:10;;;;;;;1.00;0.80;;;;;;;;;;4964139;28;20031;-70
2022/03/11 01:44:36;;;;;;;2.22;1.00;;;;;;;;;;4968762;28;20385;-70
2022/03/11 01:47:02;;;;;;;0.68;0.65;;;9.60;91.70;;;;;;4968140;28;20053;-69
2022/03/11 01:49:28;;;;;;;1.00;0.77;;;;;;;;;;4960647;28;20063;-72
2022/03/11 01:51:56;;;;;;;1.38;0.90;;;;;;;;;;4950245;28;20043;-70
2022/03/11 01:54:22;;;;;;;;;;;;;;;;;;4965641;28;20035;-71
2022/03/11 01:56:48;;;;;;;1.90;1.20;;;;;;;;;;4968412;28;20163;-70
2022/03/11 01:59:14;;;;;;;1.15;1.05;;;;;;;;;;4961797;28;20051;-72
2022/03/11 02:01:40;;;;;;;0.90;0.80;;;;;;;;;;4964824;28;20023;-70
2022/03/11 02:04:06;;;;;;;2.92;1.88;;;;;;;;;;4966392;28;20027;-71
2022/03/11 02:06:34;;;;;;;1.67;1.58;;;;;;;;;;4966286;28;20067;-70
2022/03/11 02:09:01;;;;;;;1.85;1.27;;;;;;;;;;4953910;28;20398;-71
2022/03/11 02:11:27;;;;;;;1.65;1.50;;;;;;;;;;4962172;28;20034;-71
2022/03/11 02:13:58;;;;;;;4.05;0.95;;;8.80;91.30;;;;;;4966321;28;20046;-71
2022/03/11 02:16:25;;;;;;;3.40;0.77;;;;;;;;;;4966323;28;20093;-71
2022/03/11 02:18:52;;;;;;;1.27;1.17;;;;;;;;;;4965971;28;20115;-71
2022/03/11 02:21:19;;;;;;;1.25;0.93;;;;;;;;;;4957852;28;20676;-70
2022/03/11 02:23:45;;;;;;;2.33;1.10;;;;;;;;;;4966110;28;20019;-70
2022/03/11 02:26:12;;;;;;;2.50;1.13;;;;;;;;;;4968642;28;20758;-71
2022/03/11 02:28:39;;;;;;;2.97;1.65;;;;;;;;;;4967151;28;20034;-70
2022/03/11 02:31:05;;;;;;;1.63;1.20;;;;;;;;;;4958951;28;20102;-70
2022/03/11 02:33:31;;;;;;;7.05;1.10;;;;;;;;;;4966285;28;20031;-70
2022/03/11 02:35:57;;;;;;;2.13;0.98;;;;;;;;;;4966125;28;20041;-71
2022/03/11 02:38:23;;;;;;;1.85;1.30;;;;;;;;;;4963675;28;20023;-70
2022/03/11 02:40:49;;;;;;;2.67;1.67;;;;;;;;;;4940467;28;20039;-70
2022/03/11 02:43:15;;;;;;;1.10;0.90;;;;;;;;;;4951307;28;20031;-70
2022/03/11 02:45:41;;;;;;;2.33;1.13;;;8.30;99.90;;;;;;4966071;28;20046;-70
2022/03/11 02:48:07;;;;;;;1.58;0.98;;;;;;;;;;4966712;28;20027;-70
2022/03/11 02:50:33;;;;;;;1.40;1.25;;;;;;;;;;4959719;28;20031;-71
2022/03/11 02:52:58;;;;;;;1.20;1.10;;;7.90;96.60;;;;;;4967526;28;20038;-71
2022/03/11 02:55:24;;;;;;;3.05;1.55;;;;;;;;;;4965792;28;20039;-70
2022/03/11 02:57:50;;;;;;;1.35;1.02;;;;;;;;;;4968062;28;20030;-70
2022/03/11 03:00:16;;;;;;;2.53;1.25;;;;;;;;;;4962446;28;20452;-70
2022/03/11 03:02:42;;;;;;;2.85;1.58;;;7.90;99.90;;;;;;4970543;28;20495;-70
2022/03/11 03:05:08;;;;;;;2.17;1.58;;;;;;;;;;4950260;28;20031;-71
2022/03/11 03:07:34;;;;;;;1.40;1.25;;;;;;;;;;4968843;28;20034;-70
2022/03/11 03:10:01;;;;;;;3.42;1.35;;;;;;;;;;4960541;28;20062;-71
2022/03/11 03:12:27;;;;;;;2.03;1.75;;;7.90;99.90;;;;;;4967999;28;20499;-70
2022/03/11 03:14:53;;;;;;;2.42;1.33;;;;;;;;;;4968170;28;20027;-69
2022/03/11 03:17:21;;;;;;;2.45;2.08;;;;;;;;;;4955004;28;20045;-70
2022/03/11 03:19:47;;;;;;;2.03;1.10;;;7.90;95.90;;;;;;4963298;28;20132;-70
2022/03/11 03:22:14;;;;;;;1.30;1.20;;;;;;;;;;4968426;28;20066;-70
2022/03/11 03:24:42;;;;;;;2.22;1.33;;;;;;;;;;4953647;28;20045;-69
2022/03/11 03:27:08;;;;;;;2.80;1.75;;;;;;;;;;4968793;28;20949;-72
2022/03/11 03:29:34;;;;;;;3.85;1.80;;;;;;;;;;4963863;28;20101;-70
2022/03/11 03:32:00;;;;;;;1.65;1.23;;;;;;;;;;4969545;28;20027;-71
2022/03/11 03:34:30;;;;;;;1.88;1.08;;;;;;;;;;4969805;28;20042;-70
2022/03/11 03:36:56;;;;;;;1.42;1.33;;;;;;;;;;4969638;28;20113;-70
2022/03/11 03:39:23;;;;;;;2.38;1.23;;;;;;;;;;4964016;28;20038;-71
2022/03/11 03:41:49;;;;;;;2.92;1.58;;;;;;;;;;4965930;28;20381;-70
2022/03/11 03:44:15;;;;;;;2.97;1.90;;;;;;;;;;4969929;28;20049;-70
2022/03/11 03:46:41;;;;;;;3.90;1.90;;;;;;;;;;4967435;28;20030;-71
2022/03/11 03:49:07;;;;;;;3.45;1.77;;;;;;;;;;4965396;28;20093;-70
2022/03/11 03:51:33;;;;;;;3.75;2.28;;;;;;;;;;4962919;28;20039;-71
2022/03/11 03:53:59;;;;;;;2.67;1.23;;;;;;;;;;4958716;28;20035;-69
2022/03/11 03:56:25;;;;;;;5.97;1.33;;;;;;;;;;4970780;28;20030;-70
2022/03/11 03:58:51;;;;;;;2.50;1.52;;;;;;;;;;4968288;28;20042;-71
2022/03/11 04:01:17;;;;;;;8.98;1.92;;;;;;;;;;4962948;28;20500;-70
2022/03/11 04:03:43;;;;;;;5.18;1.55;;;;;;;;;;4967554;28;20374;-69
2022/03/11 04:06:09;;;;;;;4.53;1.92;;;;;;;;;;4969332;28;20046;-71
2022/03/11 04:08:35;;;;;;;2.05;1.70;;;;;;;;;;4968723;28;20054;-71
2022/03/11 04:11:01;;;;;;;3.95;2.85;;;;;;;;;;4963316;28;20043;-71
2022/03/11 04:13:27;;;;;;;2.55;2.08;;;7.30;99.90;;;;;;4967110;28;20033;-71
2022/03/11 04:15:53;;;;;;;4.68;1.63;;;;;;;;;;4969214;28;20575;-70
2022/03/11 04:18:19;;;;;;;3.58;1.90;;;;;;;;;;4966792;28;20031;-70
2022/03/11 04:20:45;;;;;;;2.10;1.30;;;;;;;;;;4960202;28;20510;-70
2022/03/11 04:23:11;;;;;;;2.28;1.85;;;;;;;;;;4969727;28;20493;-70
2022/03/11 04:25:37;;;;;;;2.92;1.73;;;;;;;;;;4968734;28;20037;-70
2022/03/11 04:28:03;;;;;;;2.80;1.48;;;;;;;;;;4968347;28;20030;-70
2022/03/11 04:30:29;;;;;;;3.33;1.60;;;;;;;;;;4961949;28;20819;-71
2022/03/11 04:32:55;;;;;;;4.63;2.25;;;;;;;;;;4949921;28;20055;-70
2022/03/11 04:35:21;;;;;;;3.53;2.22;;;;;;;;;;4969400;28;20042;-71
2022/03/11 04:37:47;;;;;;;4.70;1.95;;;;;;;;;;4966858;28;20097;-70
2022/03/11 04:40:13;;;;;;;3.95;1.88;;;;;;;;;;4960314;28;20039;-70
2022/03/11 04:42:39;;;;;;;2.20;1.58;;;7.10;99.90;;;;;;4967574;28;20085;-71
2022/03/11 04:45:05;;;;;;;2.40;2.00;;;7.40;99.90;;;;;;4951359;28;20035;-70
2022/03/11 04:47:31;;;;;;;2.97;2.00;;;;;;;;;;4969223;28;20070;-70
2022/03/11 04:49:58;;;;;;;4.88;2.50;;;;;;;;;;4959304;28;20034;-70
2022/03/11 04:52:24;;;;;;;3.97;2.05;;;;;;;;;;4967554;28;20066;-70
2022/03/11 04:54:50;;;;;;;2.50;2.20;;;;;;;;;;4966118;28;20058;-70
2022/03/11 04:57:16;;;;;;;4.70;1.73;;;;;;;;;;4966622;28;20374;-71
2022/03/11 04:59:42;;;;;;;4.30;1.75;;;;;;;;;;4961493;28;20667;-71
2022/03/11 05:02:08;;;;;;;5.13;2.42;;;;;;;;;;4951813;28;20034;-70
2022/03/11 05:04:34;;;;;;;5.53;2.67;;;;;;;;;;4967312;28;20038;-70
2022/03/11 05:07:00;;;;;;;3.42;1.90;;;;;;;;;;4948008;28;20027;-70
2022/03/11 05:09:26;;;;;;;4.63;2.20;;;;;;;;;;4963028;28;20051;-71
2022/03/11 05:11:53;;;;;;;2.47;1.52;;;;;;;;;;4965518;28;20165;-70
2022/03/11 05:14:19;;;;;;;8.20;2.88;;;;;;;;;;4967420;28;20061;-71
2022/03/11 05:16:45;;;;;;;4.25;1.90;;;;;;;;;;4965909;28;20026;-69
2022/03/11 05:19:11;;;;;;;4.45;2.35;;;;;;;;;;4961341;28;20642;-71
2022/03/11 05:21:37;;;;;;;7.57;3.20;;;;;;;;;;4961656;28;20404;-70
2022/03/11 05:24:03;;;;;;;5.00;3.03;;;;;;;;;;4965430;28;20029;-70
2022/03/11 05:26:29;;;;;;;7.33;2.93;;;;;;;;;;4970173;28;20524;-71
2022/03/11 05:28:58;;;;;;;7.97;2.10;;;;;;;;;;4949160;28;20526;-71
2022/03/11 05:31:24;;;;;;;6.25;3.40;;;;;;;;;;4959217;28;20038;-70
2022/03/11 05:33:50;;;;;;;7.35;3.83;;;;;;;;;;4966306;28;20063;-70
2022/03/11 05:36:17;;;;;;;6.18;2.78;;;6.70;99.90;;;;;;4966197;28;20035;-70
2022/03/11 05:38:43;;;;;;;5.03;2.43;;;;;;;;;;4967525;28;20023;-71
2022/03/11 05:41:09;;;;;;;5.63;2.83;;;;;;;;;;4956857;28;20097;-70
2022/03/11 05:43:39;;;;;;;2.35;1.85;;;;;;;;;;4965496;28;20253;-70
2022/03/11 05:46:05;;;;;;;5.85;2.80;;;;;;;;;;4965322;28;20118;-70
2022/03/11 05:48:32;;;;;;;11.20;4.75;;;;;;;;;;4968511;28;20023;-69
2022/03/11 05:50:58;;;;;;;5.63;3.08;;;;;;;;;;4953821;28;20073;-70
2022/03/11 05:53:24;;;;;;;5.28;3.00;;;;;;;;;;4949782;28;20059;-70
2022/03/11 05:55:50;;;;;;;6.22;3.35;;;;;;;;;;4965589;28;20092;-70
2022/03/11 05:58:16;;;;;;;16.00;3.58;;;;;;;;;;4965891;28;20029;-70
2022/03/11 06:00:42;;;;;;;7.75;3.63;;;6.90;96.30;;;;;;4955304;28;20436;-70
2022/03/11 06:03:08;;;;;;;4.57;3.03;;;;;;;;;;4966698;28;20035;-71
2022/03/11 06:05:34;;;;;;;4.95;3.90;;;;;;;;;;4968055;28;20050;-71
2022/03/11 06:08:00;;;;;;;5.40;3.22;;;;;;;;;;4966768;28;20082;-70
2022/03/11 06:10:26;;;;;;;4.93;2.15;;;;;;;;;;4954905;28;20034;-69
2022/03/11 06:12:52;;;;;;;4.18;2.35;;;;;;;;;;4960956;28;20564;-70
2022/03/11 06:15:18;;;;;;;4.45;3.08;;;;;;;;;;4948097;28;20493;-70
2022/03/11 06:17:44;;;;;;;6.38;2.13;;;;;;;;;;4945452;28;20857;-70
2022/03/11 06:20:13;;;;;;;3.78;2.05;;;;;;;;;;4950858;28;20042;-71
2022/03/11 06:22:46;;;;;;;4.82;2.50;;;;;;;;;;4952627;28;20130;-70
2022/03/11 06:25:12;;;;;;;3.63;2.20;;;;;;;;;;4960398;28;20023;-70
2022/03/11 06:27:38;;;;;;;8.27;2.78;;;;;;;;;;4961740;28;20467;-71
2022/03/11 06:30:04;;;;;;;4.38;2.97;;;;;;;;;;4954672;28;20034;-71
2022/03/11 06:32:30;;;;;;;8.45;3.88;;;9.00;94.90;;;;;;4951516;28;20514;-70
2022/03/11 06:34:57;;;;;;;6.78;3.92;;;;;;;;;;4956861;28;20077;-70
2022/03/11 06:37:23;;;;;;;4.95;2.88;;;;;;;;;;4960927;28;20027;-70
2022/03/11 06:39:49;;;;;;;3.70;2.47;;;;;;;;;;4954619;28;20137;-71
2022/03/11 06:42:15;;;;;;;5.25;2.35;;;;;;;;;;4959803;28;20034;-71
2022/03/11 06:44:41;;;;;;;8.02;2.42;;;;;;;;;;4961506;28;20041;-71
2022/03/11 06:47:07;;;;;;;4.22;2.75;;;;;;;;;;4962590;28;20023;-71
2022/03/11 06:49:34;;;;;;;3.15;1.77;;;;;;;;;;4955424;28;20436;-71
2022/03/11 06:52:00;;;;;;;10.43;2.38;;;;;;;;;;4940406;28;20023;-75
2022/03/11 06:54:26;;;;;;;2.75;1.73;;;;;;;;;;4948507;28;20031;-74
2022/03/11 06:56:52;;;;;;;3.30;2.10;;;;;;;;;;4967851;28;20030;-73
2022/03/11 06:59:18;;;;;;;3.70;2.00;;;;;;;;;;4972549;28;20035;-74
2022/03/11 07:01:44;;;;;;;5.13;2.58;;;;;;;;;;4965304;28;20034;-66
2022/03/11 07:04:10;;;;;;;4.15;1.88;;;;;;;;;;4975677;28;20427;-68
2022/03/11 07:06:36;;;;;;;4.50;1.92;;;;;;;;;;4974096;28;20035;-68
2022/03/11 07:09:02;;;;;;;3.25;2.38;;;;;;;;;;4971275;28;20070;-69
2022/03/11 07:11:28;;;;;;;4.22;2.10;;;;;;;;;;4967234;28;20046;-68
2022/03/11 07:13:54;;;;;;;7.45;2.78;;;;;;;;;;4973788;28;20026;-68
2022/03/11 07:16:20;;;;;;;3.20;1.80;;;;;;;;;;4957143;28;20041;-68
2022/03/11 07:18:46;;;;;;;4.40;1.90;;;;;;;;;;4973580;28;20034;-68
2022/03/11 07:21:12;;;;;;;4.30;1.98;;;;;;;;;;4960909;28;20450;-69
2022/03/11 07:23:38;;;;;;;1.95;1.40;;;;;;;;;;4972722;28;20018;-69
2022/03/11 07:26:04;;;;;;;2.92;1.75;;;;;;;;;;4976546;28;20034;-69
2022/03/11 07:28:30;;;;;;;4.53;2.03;;;;;;;;;;4974505;28;20045;-74
2022/03/11 07:30:56;;;;;;;1.98;1.23;;;;;;;;;;4962432;28;20049;-72
2022/03/11 07:33:22;;;;;;;3.75;2.08;;;;;;;;;;4970215;28;20033;-72
2022/03/11 07:35:48;;;;;;;2.47;1.92;;;;;;;;;;4956280;28;20034;-72
2022/03/11 07:38:14;;;;;;;3.83;1.77;;;;;;;;;;4974538;28;20038;-74
2022/03/11 07:40:40;;;;;;;2.75;1.70;;;;;;;;;;4962295;28;20043;-73
2022/03/11 07:43:09;;;;;;;2.50;1.33;;;;;;;;;;4963286;28;20073;-73
2022/03/11 07:45:35;;;;;;;2.25;1.45;;;;;;;;;;4978009;28;20507;-73
2022/03/11 07:48:01;;;;;;;1.50;1.20;;;;;;;;;;4977358;28;20030;-76
2022/03/11 07:50:27;;;;;;;2.45;1.90;;;;;;;;;;4964802;28;20415;-76
2022/03/11 07:52:53;;;;;;;4.72;1.85;;;;;;;;;;4965892;28;20030;-76
2022/03/11 07:55:22;;;;;;;1.10;0.90;;;;;;;;;;4964174;28;20034;-75
2022/03/11 07:57:47;;;;;;;6.68;1.60;;;;;;;;;;4979392;28;20084;-76
2022/03/11 08:00:14;;;;;;;3.63;1.38;;;;;;;;;;4964760;28;20046;-75
2022/03/11 08:02:40;;;;;;;1.58;1.23;;;;;;;;;;4978300;28;20760;-75
2022/03/11 08:05:11;;;;;;;3.50;1.35;;;;;;;;;;4978234;28;20963;-74
2022/03/11 08:07:37;;;;;;;2.28;1.60;;;;;;;;;;4978489;28;20069;-74
2022/03/11 08:10:05;;;;;;;2.70;1.48;;;;;;;;;;4964199;28;21575;-77
2022/03/11 08:12:31;;;;;;;;;;;;;;;;;;4967244;28;20023;-77
2022/03/11 08:14:59;;;;;;;3.83;2.30;;;;;;;;;;4961566;28;19922;-76
2022/03/11 08:17:25;;;;;;;4.47;2.13;;;15.20;75.20;;;;;;4970480;28;20038;-75
2022/03/11 08:19:51;;;;;;;2.70;1.27;;;;;;;;;;4957252;28;20078;-73
2022/03/11 08:22:17;;;;;;;2.17;1.05;;;;;;;;;;4967363;28;20045;-76
2022/03/11 08:24:43;;;;;;;2.63;1.50;;;;;;;;;;4950678;28;20026;-75
2022/03/11 08:27:11;;;;;;;2.22;1.65;;;;;;;;;;4969154;28;20137;-74
2022/03/11 08:29:37;;;;;;;1.77;1.58;;;;;;;;;;4961980;28;20066;-74
2022/03/11 08:32:03;;;;;;;3.47;1.98;;;;;;;;;;4947539;28;20045;-75
2022/03/11 08:34:29;;;;;;;5.95;2.75;;;;;;;;;;4968116;28;20098;-75
2022/03/11 08:36:55;;;;;;;5.90;2.05;;;;;;;;;;4968095;28;20031;-75
2022/03/11 08:39:21;;;;;;;2.47;1.27;;;;;;;;;;4963025;28;20068;-74
2022/03/11 08:41:47;;;;;;;3.88;1.85;;;;;;;;;;4961143;28;20536;-72
2022/03/11 08:44:13;;;;;;;2.80;1.98;;;;;;;;;;4968492;28;20037;-72
2022/03/11 08:46:39;;;;;;;3.50;1.90;;;;;;;;;;4966800;28;20093;-74
2022/03/11 08:49:07;;;;;;;2.90;1.75;;;;;;;;;;4965728;28;20027;-74
2022/03/11 08:51:33;;;;;;;2.08;1.48;;;;;;;;;;4959296;28;20023;-76
2022/03/11 08:53:59;;;;;;;6.85;1.77;;;;;;;;;;4964333;28;20103;-73
2022/03/11 08:56:25;;;;;;;5.13;2.42;;;;;;;;;;4968526;28;20114;-72
2022/03/11 08:58:51;;;;;;;5.03;1.77;;;;;;;;;;4967008;28;20066;-72
2022/03/11 09:01:18;;;;;;;2.97;2.22;;;;;;;;;;4940861;28;20031;-70
2022/03/11 09:03:44;;;;;;;2.05;1.63;;;;;;;;;;4968023;28;20023;-74
2022/03/11 09:06:10;;;;;;;3.67;2.30;;;;;;;;;;4965630;28;20073;-73
2022/03/11 09:08:36;;;;;;;3.53;2.50;;;;;;;;;;4968744;28;20051;-72
2022/03/11 09:11:02;;;;;;;4.90;2.85;;;;;;;;;;4938988;28;20110;-72
2022/03/11 09:13:28;;;;;;;4.72;2.08;;;;;;;;;;4968027;28;20110;-72
2022/03/11 09:15:54;;;;;;;5.18;3.08;;;;;;;;;;4966156;28;20122;-72
2022/03/11 09:18:20;;;;;;;3.75;2.25;;;;;;;;;;4968215;28;20400;-72
2022/03/11 09:20:47;;;;;;;3.45;2.35;;;;;;;;;;4955316;28;20034;-72
2022/03/11 09:23:13;;;;;;;6.53;2.23;;;;;;;;;;4968396;28;20033;-72
2022/03/11 09:25:39;;;;;;;3.17;2.33;;;;;;;;;;4965957;28;20369;-72
2022/03/11 09:28:06;;;;;;;2.85;2.47;;;;;;;;;;4967371;28;20121;-73
2022/03/11 09:30:32;;;;;;;3.55;2.05;;;;;;;;;;4956227;28;20041;-72
2022/03/11 09:32:58;;;;;;;3.47;2.58;;;;;;;;;;4967439;28;20484;-71
2022/03/11 09:35:24;;;;;;;8.23;2.25;;;;;;;;;;4967238;28;20035;-70
2022/03/11 09:37:50;;;;;;;3.15;2.05;;;;;;;;;;4966719;28;20062;-70
2022/03/11 09:40:16;;;;;;;5.45;2.65;;;;;;;;;;4955826;28;20508;-72
2022/03/11 09:42:42;;;;;;;9.23;2.15;;;13.20;59.20;;;;;;4965607;28;20019;-70
2022/03/11 09:45:09;;;;;;;4.78;2.55;;;;;;;;;;4966911;28;20039;-71
2022/03/11 09:47:35;;;;;;;4.35;2.03;;;;;;;;;;4967207;28;20108;-72
2022/03/11 09:50:01;;;;;;;3.55;2.20;;;;;;;;;;4958001;28;20058;-72
2022/03/11 09:52:27;;;;;;;5.95;2.60;;;;;;;;;;4947392;28;20038;-71
2022/03/11 09:54:53;;;;;;;3.90;2.05;;;;;;;;;;4966398;28;20062;-73
2022/03/11 09:57:22;;;;;;;8.98;2.30;;;;;;;;;;4965000;28;20050;-72
2022/03/11 09:59:49;;;;;;;3.88;2.08;;;;;;;;;;4958359;28;20047;-69
2022/03/11 10:02:15;;;;;;;5.13;2.55;;;;;;;;;;4965093;28;20030;-70
2022/03/11 10:04:52;;;;;;;4.00;2.40;;;;;;;;;;4966503;28;20035;-69
2022/03/11 10:07:28;;;;;;;4.72;2.17;;;;;;;;;;4965062;28;20033;-68
2022/03/11 10:09:54;;;;;;;2.95;2.38;;;;;;;;;;4957326;28;20046;-72
2022/03/11 10:12:28;;;;;;;2.80;1.93;;;;;;;;;;4963574;28;20478;-71
2022/03/11 10:14:55;;;;;;;4.25;2.30;;;;;;;;;;4965410;28;20293;-74
2022/03/11 10:17:22;;;;;;;2.78;1.45;;;;;;;;;;4962782;28;20026;-71
2022/03/11 10:19:54;;;;;;;4.35;2.10;;;;;;;;;;4958126;28;20057;-74
2022/03/11 10:22:23;;;;;;;6.40;1.67;;;;;;;;;;4962890;28;20027;-74
2022/03/11 10:24:49;;;;;;;2.80;1.88;;;;;;;;;;4964792;28;20034;-72
2022/03/11 10:27:15;;;;;;;3.90;2.17;;;;;;;;;;4965163;28;20027;-71
2022/03/11 10:29:41;;;;;;;3.65;1.63;;;;;;;;;;4960080;28;20066;-74
2022/03/11 10:32:08;;;;;;;2.08;1.40;;;;;;;;;;4951357;28;20014;-73
2022/03/11 10:34:35;;;;;;;5.90;2.50;;;;;;;;;;4957896;28;20033;-73
2022/03/11 10:37:06;;;;;;;4.30;2.28;;;;;;;;;;4965065;28;20267;-70
2022/03/11 10:39:32;;;;;;;7.25;2.60;;;;;;;;;;4958766;28;20054;-74
2022/03/11 10:42:00;;;;;;;2.40;1.90;;;;;;;;;;4961239;28;20546;-70
2022/03/11 10:44:27;;;;;;;3.08;1.77;;;;;;;;;;4966183;28;20448;-73
2022/03/11 10:46:54;;;;;;;4.32;2.00;;;15.90;51.70;;;;;;4965669;28;20026;-70
2022/03/11 10:49:31;;;;;;;5.18;1.95;;;;;;;;;;4947237;28;20431;-69
2022/03/11 10:51:58;;;;;;;3.13;2.10;;;;;;;;;;4960539;28;20098;-70
2022/03/11 10:54:26;;;;;;;2.72;1.75;;;;;;;;;;4964041;28;20631;-71
2022/03/11 10:56:52;;;;;;;3.67;2.40;;;;;;;;;;4959540;28;20043;-71
2022/03/11 10:59:21;;;;;;;5.68;3.13;;;;;;;;;;4962955;28;20046;-72
2022/03/11 11:01:47;;;;;;;3.38;2.28;;;;;;;;;;4953284;28;20113;-70
2022/03/11 11:04:15;;;;;;;4.32;1.92;;;17.40;46.10;;;;;;4960718;28;20062;-71
2022/03/11 11:06:42;;;;;;;4.88;2.38;;;;;;;;;;4965625;28;20066;-72
2022/03/11 11:09:09;;;;;;;4.57;2.83;;;;;;;;;;4950380;28;20049;-69
2022/03/11 11:11:35;;;;;;;4.25;2.63;;;;;;;;;;4959060;28;20055;-69
2022/03/11 11:14:05;;;;;;;5.63;2.30;;;;;;;;;;4965117;28;20495;-70
2022/03/11 11:16:38;;;;;;;5.75;3.08;;;;;;;;;;4964947;28;20061;-71
2022/03/11 11:19:05;;;;;;;5.60;2.65;;;;;;;;;;4964190;28;20031;-68
2022/03/11 11:21:31;;;;;;;3.95;2.13;;;;;;;;;;4961545;28;20794;-67
2022/03/11 11:23:58;;;;;;;;;;;;;;;;;;4968813;28;20051;-67
2022/03/11 11:26:25;;;;;;;4.00;2.70;;;;;;;;;;4968234;28;20351;-67
2022/03/11 11:28:56;;;;;;;6.95;2.42;;;;;;;;;;4967097;28;20089;-69
2022/03/11 11:31:23;;;;;;;5.15;2.85;;;17.00;47.40;;;;;;4960437;28;20034;-67
2022/03/11 11:33:49;;;;;;;4.55;3.10;;;;;;;;;;4969259;28;20053;-67
2022/03/11 11:36:33;;;;;;;5.63;2.83;;;;;;;;;;4969295;28;20108;-68
2022/03/11 11:39:05;;;;;;;3.83;2.28;;;;;;;;;;4967808;28;20061;-68
2022/03/11 11:41:31;;;;;;;3.33;1.75;;;;;;;;;;4944690;28;20070;-69
2022/03/11 11:44:00;;;;;;;3.87;1.93;;;;;;;;;;4969173;28;20488;-67
2022/03/11 11:46:26;;;;;;;5.25;3.15;;;;;;;;;;4968157;28;20046;-68
2022/03/11 11:48:52;;;;;;;4.25;2.47;;;;;;;;;;4968181;28;20639;-69
2022/03/11 11:51:34;;;;;;;6.00;3.28;;;;;;;;;;4959486;28;20031;-67
2022/03/11 11:54:13;;;;;;;4.82;2.65;;;;;;;;;;4967241;28;20045;-67
2022/03/11 11:56:46;;;;;;;3.72;2.40;;;;;;;;;;4967817;28;20034;-67
2022/03/11 11:59:12;;;;;;;3.38;2.40;;;;;;;;;;4966943;28;20132;-68
2022/03/11 12:01:48;;;;;;;3.65;1.92;;;;;;;;;;4961650;28;20031;-67
2022/03/11 12:04:25;;;;;;;4.88;2.72;;;;;;;;;;4968675;28;20093;-67
2022/03/11 12:06:56;;;;;;;6.65;2.55;;;;;;;;;;4967381;28;20496;-68
2022/03/11 12:09:41;;;;;;;5.53;2.30;;;;;;;;;;4959870;28;20054;-67
2022/03/11 12:15:01;;;;;;;6.47;3.40;;;;;;;;;;4968307;28;20136;-67
2022/03/11 12:17:36;;;;;;;7.75;3.42;;;;;;;;;;4968708;28;20074;-71
2022/03/11 12:20:21;;;;;;;4.07;2.25;;;;;;;;;;4960829;28;20085;-70
2022/03/11 12:22:54;;;;;;;3.83;2.83;;;;;;;;;;4960936;28;20065;-68
2022/03/11 12:25:22;;;;;;;5.97;3.30;;;;;;;;;;4959195;28;20601;-68
2022/03/11 12:28:08;;;;;;;7.05;2.80;;;;;;;;;;4949175;28;20062;-70
2022/03/11 12:30:34;;;;;;;7.20;3.72;;;;;;;;;;4947263;28;20106;-68
2022/03/11 12:33:11;;;;;;;5.60;2.95;;;16.60;48.70;;;;;;4966582;28;20468;-68
2022/03/11 12:35:37;;;;;;;6.72;3.42;;;;;;;;;;4966318;28;20030;-68
2022/03/11 12:38:04;;;;;;;4.22;2.75;;;;;;;;;;4967748;28;20678;-72
2022/03/11 12:40:32;;;;;;;12.38;3.78;;;;;;;;;;4936694;28;20086;-71
2022/03/11 12:42:58;;;;;;;;;;;;;;;;;;4962116;28;20028;-67
2022/03/11 12:45:35;;;;;;;6.87;3.40;;;;;;;;;;4954254;28;19957;-68
2022/03/11 12:48:01;;;;;;;4.53;2.40;;;;;;;;;;4964095;28;20881;-68
2022/03/11 12:50:27;;;;;;;10.65;3.65;;;15.70;69.80;;;;;;4956694;28;20034;-68
2022/03/11 12:52:56;;;;;;;7.30;3.65;;;;;;;;;;4967287;28;20027;-66
2022/03/11 12:55:32;;;;;;;8.07;2.63;;;;;;;;;;4957758;28;20035;-67
2022/03/11 12:58:00;;;;;;;6.03;2.58;;;;;;;;;;4963568;28;20031;-66
2022/03/11 13:00:29;;;;;;;5.75;2.97;;;;;;;;;;4954957;28;20050;-67
2022/03/11 13:02:55;;;;;;;6.80;2.95;;;;;;;;;;4966517;28;20409;-66
2022/03/11 13:05:22;;;;;;;9.10;2.25;;;;;;;;;;4957061;28;20109;-67
2022/03/11 13:07:49;;;;;;;4.53;2.35;;;;;;;;;;4967119;28;20065;-69
2022/03/11 13:10:22;;;;;;;8.73;3.05;;;;;;;;;;4955630;28;20215;-69
2022/03/11 13:12:50;;;;;;;6.95;2.33;;;;;;;;;;4965779;28;20559;-69
2022/03/11 13:15:16;;;;;;;5.75;2.22;;;;;;;;;;4968104;28;20060;-69
2022/03/11 13:17:43;;;;;;;6.82;3.55;;;;;;;;;;4967220;28;20039;-68
2022/03/11 13:20:24;;;;;;;5.20;2.30;;;;;;;;;;4939709;28;20397;-68
2022/03/11 13:22:50;;;;;;;3.78;2.53;;;15.40;74.30;;;;;;4966495;28;20034;-68
2022/03/11 13:25:22;;;;;;;4.15;2.28;;;;;;;;;;4967552;28;20051;-68
2022/03/11 13:27:49;;;;;;;3.47;2.22;;;;;;;;;;4948822;28;20034;-69
2022/03/11 13:30:15;;;;;;;6.55;2.28;;;;;;;;;;4957758;28;20070;-70
2022/03/11 13:32:41;;;;;;;6.20;2.42;;;;;;;;;;4964228;28;20076;-67
2022/03/11 13:35:07;;;;;;;5.18;3.13;;;;;;;;;;4953714;28;20035;-69
2022/03/11 13:37:42;;;;;;;12.55;2.63;;;;;;;;;;4963102;28;20093;-68
2022/03/11 13:40:10;;;;;;;5.13;3.22;;;;;;;;;;4955662;28;20126;-68
2022/03/11 13:42:36;;;;;;;4.28;2.08;;;;;;;;;;4963026;28;20022;-69
2022/03/11 13:45:08;;;;;;;5.93;2.75;;;;;;;;;;4967898;28;20042;-70
2022/03/11 13:47:34;;;;;;;8.93;3.22;;;;;;;;;;4964753;28;20033;-69
2022/03/11 13:50:07;;;;;;;6.88;3.55;;;14.20;52.30;;;;;;4954777;28;20783;-68
2022/03/11 13:52:41;;;;;;;5.68;2.28;;;13.70;54.10;;;;;;4958604;28;20049;-68
2022/03/11 13:55:08;;;;;;;4.95;2.40;;;;;;;;;;4966509;28;20027;-69
2022/03/11 13:57:34;;;;;;;5.22;2.78;;;13.40;55.80;;;;;;4964418;28;20034;-68
2022/03/11 14:00:17;;;;;;;6.37;2.27;;;;;;;;;;4937820;28;20053;-67
2022/03/11 14:02:43;;;;;;;5.05;2.38;;;;;;;;;;4964308;28;20270;-69
2022/03/11 14:05:13;;;;;;;4.28;2.40;;;;;;;;;;4966969;28;20033;-68
2022/03/11 14:07:39;;;;;;;8.43;4.50;;;;;;;;;;4955284;28;20530;-68
2022/03/11 14:10:12;;;;;;;4.47;3.10;;;;;;;;;;4944877;28;20729;-68
2022/03/11 14:12:38;;;;;;;4.60;3.03;;;;;;;;;;4963976;28;20059;-68
2022/03/11 14:15:09;;;;;;;18.45;7.47;;;;;;;;;;4965815;28;20066;-67
2022/03/11 14:17:35;;;;;;;4.22;2.70;;;;;;;;;;4963826;28;20041;-66
2022/03/11 14:20:03;;;;;;;4.80;2.53;;;;;;;;;;4957978;28;20051;-67
2022/03/11 14:22:29;;;;;;;6.70;2.88;;;;;;;;;;4962081;28;20031;-68
2022/03/11 14:24:55;;;;;;;6.47;3.47;;;;;;;;;;4961910;28;20027;-68
2022/03/11 14:27:21;;;;;;;42.67;5.15;;;;;;;;;;4953738;28;20030;-69
2022/03/11 14:29:47;;;;;;;5.68;2.60;;;;;;;;;;4956221;28;20420;-67
2022/03/11 14:32:13;;;;;;;4.85;2.47;;;;;;;;;;4963993;28;20031;-71
2022/03/11 14:34:39;;;;;;;4.70;2.50;;;;;;;;;;4964769;28;20583;-71
2022/03/11 14:37:06;;;;;;;6.25;3.30;;;;;;;;;;4964100;28;20039;-69